KCWC

Kickapoo Downtown Airport

Wichita Falls, Texas, USA
METAR KCWC 222035Z AUTO 15009KT 10SM CLR 21/09 A3014 RMK AO2 T02110089
Observed Flight Rules
Oct-22 @ 20:35 UTC (23 minutes ago) Visual Flight Rules
Wind Visibility Clouds
150° at 9 knots 10 miles
  • Clear skies
Temperatures Readings
Current 21°C / 70°F
Dewpoint 9°C / 48°F
Humidity 46%
Altimeter 30.14" Hg
Pressure 1021 hPa
Elevation 305
METAR KCWC 222035Z AUTO 15009KT 10SM CLR 21/09 A3014 RMK AO2 T02110089
Observed Flight Rules
Oct-22 @ 20:35 UTC
(23 minutes ago)
VFR
Wind Visibility
150° at 9 knots 10 miles
Clouds
  • Clear skies
Temperature Dewpoint
21°C / 70°F 9°C / 48°F
Humidity Altimeter Pressure
46% 30.14" Hg 1021 hPa